createdAt,value
2024-02-17T00:01:31.535Z,3.30
2024-02-17T00:04:00.476Z,2.60
2024-02-17T00:06:29.004Z,2.77
2024-02-17T00:08:57.992Z,2.80
2024-02-17T00:11:27.121Z,2.80
2024-02-17T00:13:55.648Z,2.83
2024-02-17T00:16:24.031Z,3.07
2024-02-17T00:18:53.980Z,2.80
2024-02-17T00:21:22.558Z,2.73
2024-02-17T00:23:51.311Z,3.00
2024-02-17T00:26:19.778Z,2.90
2024-02-17T00:28:48.890Z,2.60
2024-02-17T00:31:19.690Z,2.87
2024-02-17T00:33:48.329Z,3.03
2024-02-17T00:36:18.138Z,2.97
2024-02-17T00:38:46.542Z,2.50
2024-02-17T00:41:15.018Z,2.40
2024-02-17T00:43:43.404Z,2.57
2024-02-17T00:46:11.774Z,2.53
2024-02-17T00:48:40.295Z,2.50
2024-02-17T00:51:13.002Z,2.20
2024-02-17T00:53:44.597Z,2.20
2024-02-17T00:56:14.144Z,2.43
2024-02-17T00:58:42.675Z,2.50
2024-02-17T01:01:20.055Z,2.27
2024-02-17T01:03:55.834Z,2.27
2024-02-17T01:06:24.812Z,2.47
2024-02-17T01:08:54.724Z,2.70
2024-02-17T01:11:23.131Z,2.83
2024-02-17T01:13:51.673Z,2.50
2024-02-17T01:16:20.301Z,2.67
2024-02-17T01:18:48.938Z,2.73
2024-02-17T01:21:17.693Z,2.47
2024-02-17T01:23:46.128Z,2.50
2024-02-17T01:26:15.995Z,2.40
2024-02-17T01:28:44.679Z,2.33
2024-02-17T01:31:13.211Z,2.40
2024-02-17T01:33:41.861Z,2.47
2024-02-17T01:36:18.353Z,2.30
2024-02-17T01:38:48.020Z,2.10
2024-02-17T01:41:18.600Z,2.13
2024-02-17T01:43:46.958Z,2.30
2024-02-17T01:46:15.366Z,2.20
2024-02-17T01:48:44.814Z,2.23
2024-02-17T01:51:13.565Z,2.50
2024-02-17T01:53:42.721Z,3.00
2024-02-17T01:56:12.266Z,2.83
2024-02-17T01:58:42.178Z,3.07
2024-02-17T02:01:10.696Z,2.77
2024-02-17T02:03:40.667Z,2.73
2024-02-17T02:06:09.443Z,2.77
2024-02-17T02:08:37.854Z,2.53
2024-02-17T02:11:07.024Z,2.77
2024-02-17T02:13:35.594Z,2.70
2024-02-17T02:16:06.898Z,2.33
2024-02-17T02:18:36.112Z,2.20
2024-02-17T02:21:07.204Z,2.30
2024-02-17T02:23:36.539Z,2.40
2024-02-17T02:26:06.690Z,2.40
2024-02-17T02:28:35.394Z,2.63
2024-02-17T02:31:04.000Z,2.33
2024-02-17T02:33:32.620Z,2.27
2024-02-17T02:36:01.259Z,2.50
2024-02-17T02:38:29.693Z,2.57
2024-02-17T02:40:58.084Z,2.40
2024-02-17T02:43:28.049Z,2.40
2024-02-17T02:45:56.493Z,2.30
2024-02-17T02:48:25.010Z,2.50
2024-02-17T02:50:53.461Z,2.40
2024-02-17T02:53:21.886Z,2.23
2024-02-17T02:55:50.250Z,2.60
2024-02-17T02:58:18.668Z,2.60
2024-02-17T03:00:49.423Z,2.47
2024-02-17T03:03:18.073Z,2.63
2024-02-17T03:05:46.511Z,2.60
2024-02-17T03:08:15.153Z,2.70
2024-02-17T03:10:43.523Z,2.60
2024-02-17T03:13:11.978Z,2.30
2024-02-17T03:15:40.765Z,2.63
2024-02-17T03:18:10.739Z,2.40
2024-02-17T03:20:39.264Z,2.30
2024-02-17T03:23:07.578Z,2.20
2024-02-17T03:25:39.146Z,2.43
2024-02-17T03:28:08.321Z,2.20
2024-02-17T03:30:37.291Z,2.37
2024-02-17T03:33:06.556Z,2.60
2024-02-17T03:35:36.553Z,2.50
2024-02-17T03:38:05.077Z,2.60
2024-02-17T03:40:33.459Z,2.30
2024-02-17T03:43:01.796Z,2.43
2024-02-17T03:45:30.283Z,2.10
2024-02-17T03:47:58.960Z,2.27
2024-02-17T03:50:28.204Z,2.00
2024-02-17T03:52:58.051Z,2.00
2024-02-17T03:55:26.544Z,2.30
2024-02-17T03:57:54.902Z,2.47
2024-02-17T04:00:23.559Z,2.03
2024-02-17T04:02:51.988Z,2.60
2024-02-17T04:05:20.665Z,2.40
2024-02-17T04:07:49.254Z,2.07
2024-02-17T04:10:19.369Z,2.50
2024-02-17T04:12:48.117Z,2.60
2024-02-17T04:15:16.744Z,2.63
2024-02-17T04:17:45.633Z,2.23
2024-02-17T04:20:14.150Z,2.30
2024-02-17T04:22:42.673Z,2.00
2024-02-17T04:25:11.476Z,2.17
2024-02-17T04:27:41.410Z,2.20
2024-02-17T04:30:10.481Z,2.20
2024-02-17T04:32:38.984Z,2.47
2024-02-17T04:35:08.597Z,2.30
2024-02-17T04:37:37.089Z,2.50
2024-02-17T04:40:07.578Z,2.50
2024-02-17T04:42:36.022Z,2.60
2024-02-17T04:45:06.522Z,2.30
2024-02-17T04:47:35.053Z,2.63
2024-02-17T04:50:03.427Z,2.77
2024-02-17T04:52:31.760Z,2.40
2024-02-17T04:55:00.078Z,2.47
2024-02-17T04:57:28.459Z,2.53
2024-02-17T04:59:56.786Z,2.83
2024-02-17T05:02:26.742Z,2.30
2024-02-17T05:04:55.136Z,2.50
2024-02-17T05:07:23.476Z,2.50
2024-02-17T05:09:51.889Z,2.53
2024-02-17T05:12:20.384Z,2.50
2024-02-17T05:14:48.756Z,2.90
2024-02-17T05:17:17.317Z,3.00
2024-02-17T05:19:47.162Z,3.27
2024-02-17T05:22:15.744Z,3.20
2024-02-17T05:24:45.742Z,3.10
2024-02-17T05:27:14.580Z,2.77
2024-02-17T05:29:43.248Z,2.60
2024-02-17T05:32:11.938Z,2.40
2024-02-17T05:34:41.353Z,2.60
2024-02-17T05:37:11.341Z,2.50
2024-02-17T05:39:39.733Z,2.43
2024-02-17T05:42:08.291Z,2.50
2024-02-17T05:44:36.760Z,2.30
2024-02-17T05:47:05.159Z,2.50
2024-02-17T05:49:34.172Z,2.30
2024-02-17T05:52:02.865Z,2.80
2024-02-17T05:54:32.580Z,2.10
2024-02-17T05:57:01.035Z,2.37
2024-02-17T05:59:29.297Z,2.67
2024-02-17T06:01:57.695Z,2.80
2024-02-17T06:04:26.121Z,3.23
2024-02-17T06:06:54.514Z,4.10
2024-02-17T06:09:22.958Z,4.67
2024-02-17T06:11:52.772Z,3.50
2024-02-17T06:14:22.681Z,3.70
2024-02-17T06:16:51.789Z,3.37
2024-02-17T06:19:37.725Z,3.40
2024-02-17T06:22:06.171Z,3.07
2024-02-17T06:24:34.539Z,3.50
2024-02-17T06:27:04.642Z,3.33
2024-02-17T06:29:32.988Z,4.27
2024-02-17T06:32:01.336Z,6.40
2024-02-17T06:34:29.786Z,10.57
2024-02-17T06:36:58.304Z,8.80
2024-02-17T06:39:26.706Z,8.87
2024-02-17T06:41:55.066Z,9.63
2024-02-17T06:44:26.866Z,9.90
2024-02-17T06:46:55.669Z,10.10
2024-02-17T06:49:24.210Z,9.23
2024-02-17T06:51:52.676Z,10.47
2024-02-17T06:54:21.111Z,11.07
2024-02-17T06:56:49.449Z,11.90
2024-02-17T06:59:17.740Z,11.60
2024-02-17T07:01:47.433Z,12.37
2024-02-17T07:04:16.827Z,16.60
2024-02-17T07:06:45.564Z,21.33
2024-02-17T07:09:18.217Z,22.40
2024-02-17T07:11:46.671Z,22.47
2024-02-17T07:14:15.046Z,22.83
2024-02-17T07:16:43.383Z,28.80
2024-02-17T07:19:13.192Z,35.10
2024-02-17T07:21:41.661Z,41.03
2024-02-17T07:24:10.109Z,42.53
2024-02-17T07:26:43.723Z,42.20
2024-02-17T07:29:12.874Z,40.07
2024-02-17T07:31:42.404Z,35.80
2024-02-17T07:34:13.172Z,32.10
2024-02-17T07:36:50.046Z,25.10
2024-02-17T07:39:19.130Z,19.33
2024-02-17T07:41:47.487Z,17.13
2024-02-17T07:44:18.643Z,16.87
2024-02-17T07:46:48.547Z,14.53
2024-02-17T07:49:18.397Z,14.93
2024-02-17T07:51:47.261Z,13.43
2024-02-17T07:54:17.264Z,12.27
2024-02-17T07:56:45.664Z,13.00
2024-02-17T07:59:13.939Z,11.53
2024-02-17T08:01:42.428Z,11.90
2024-02-17T08:04:11.016Z,10.80
2024-02-17T08:06:39.531Z,10.97
2024-02-17T08:09:09.235Z,12.13
2024-02-17T08:11:39.190Z,12.63
2024-02-17T08:14:08.836Z,15.13
2024-02-17T08:16:37.275Z,16.67
2024-02-17T08:19:05.886Z,17.67
2024-02-17T08:21:35.190Z,18.60
2024-02-17T08:24:03.515Z,19.70
2024-02-17T08:26:31.828Z,19.60
2024-02-17T08:29:01.663Z,20.13
2024-02-17T08:31:29.982Z,20.70
2024-02-17T08:33:58.449Z,20.93
2024-02-17T08:36:26.886Z,21.17
2024-02-17T08:38:55.418Z,20.20
2024-02-17T08:41:23.766Z,19.87
2024-02-17T08:43:52.272Z,20.97
2024-02-17T08:46:21.991Z,21.37
2024-02-17T08:48:50.602Z,21.00
2024-02-17T08:51:19.061Z,22.90
2024-02-17T08:53:47.536Z,22.13
2024-02-17T08:56:16.384Z,21.97
2024-02-17T08:58:44.812Z,23.47
2024-02-17T09:01:13.528Z,23.43
2024-02-17T09:03:46.566Z,22.40
2024-02-17T09:06:15.225Z,23.50
2024-02-17T09:08:43.600Z,29.20
2024-02-17T09:11:13.153Z,29.60
2024-02-17T09:13:42.987Z,31.73
2024-02-17T09:16:11.464Z,37.27
2024-02-17T09:18:40.000Z,37.77
2024-02-17T09:21:10.124Z,43.63
2024-02-17T09:23:38.516Z,51.33
2024-02-17T09:26:06.968Z,60.37
2024-02-17T09:28:35.298Z,58.10
2024-02-17T09:31:03.742Z,59.83
2024-02-17T09:33:32.272Z,54.77
2024-02-17T09:36:00.736Z,52.05
2024-02-17T09:38:30.662Z,56.80
2024-02-17T09:40:59.084Z,59.20
2024-02-17T09:43:27.579Z,62.45
2024-02-17T09:45:56.252Z,76.18
2024-02-17T09:48:24.856Z,82.82
2024-02-17T09:50:54.921Z,80.55
2024-02-17T09:53:25.025Z,83.18
2024-02-17T09:55:54.783Z,77.38
2024-02-17T09:58:23.115Z,65.40
2024-02-17T10:00:51.794Z,55.25
2024-02-17T10:03:21.319Z,45.83
2024-02-17T10:05:51.658Z,48.00
2024-02-17T10:08:19.978Z,43.47
2024-02-17T10:10:48.471Z,34.60
2024-02-17T10:13:20.599Z,28.27
2024-02-17T10:15:49.271Z,24.63
2024-02-17T10:18:21.175Z,21.42
2024-02-17T10:20:57.849Z,21.80
2024-02-17T10:23:28.346Z,26.20
2024-02-17T10:25:59.782Z,30.08
2024-02-17T10:28:35.569Z,36.80
2024-02-17T10:31:04.898Z,39.78
2024-02-17T10:33:33.562Z,50.22
2024-02-17T10:36:02.731Z,37.38
2024-02-17T10:38:31.960Z,29.48
2024-02-17T10:41:00.794Z,23.15
2024-02-17T10:43:30.574Z,17.90
2024-02-17T10:46:01.416Z,13.70
2024-02-17T10:48:30.454Z,12.45
2024-02-17T10:50:59.114Z,10.55
2024-02-17T10:53:32.856Z,9.65
2024-02-17T10:56:02.457Z,10.38
2024-02-17T10:58:35.924Z,10.15
2024-02-17T11:01:59.184Z,9.95
2024-02-17T11:04:28.469Z,8.65
2024-02-17T11:06:57.273Z,8.45
2024-02-17T11:09:25.746Z,8.75
2024-02-17T11:11:54.135Z,7.70
2024-02-17T11:14:44.252Z,7.38
2024-02-17T11:17:13.166Z,6.60
2024-02-17T11:19:43.947Z,6.05
2024-02-17T11:22:13.480Z,4.95
2024-02-17T11:24:41.861Z,4.78
2024-02-17T11:27:10.451Z,4.30
2024-02-17T11:29:42.730Z,4.15
2024-02-17T11:32:14.761Z,4.18
2024-02-17T11:34:45.996Z,4.35
2024-02-17T11:37:15.551Z,5.22
2024-02-17T11:39:45.588Z,5.35
2024-02-17T11:42:14.851Z,5.45
2024-02-17T11:44:47.075Z,4.95
2024-02-17T11:47:15.779Z,5.43
2024-02-17T11:49:44.591Z,5.35
2024-02-17T11:52:13.569Z,4.70
2024-02-17T11:54:43.421Z,4.50
2024-02-17T11:57:15.174Z,3.97
2024-02-17T11:59:47.554Z,4.07
2024-02-17T12:02:15.915Z,4.55
2024-02-17T12:04:45.958Z,4.28
2024-02-17T12:07:14.969Z,4.90
2024-02-17T12:09:43.412Z,4.97
2024-02-17T12:12:11.937Z,4.90
2024-02-17T12:14:40.560Z,5.20
2024-02-17T12:17:10.683Z,5.10
2024-02-17T12:19:39.223Z,5.45
2024-02-17T12:22:08.648Z,5.10
2024-02-17T12:24:37.523Z,4.78
2024-02-17T12:27:07.073Z,4.47
2024-02-17T12:29:35.593Z,5.10
2024-02-17T12:32:03.935Z,5.63
2024-02-17T12:34:35.187Z,5.50
2024-02-17T12:37:05.119Z,5.22
2024-02-17T12:39:34.911Z,5.65
2024-02-17T12:42:05.511Z,5.20
2024-02-17T12:44:34.258Z,5.75
2024-02-17T12:47:13.356Z,5.25
2024-02-17T12:49:44.760Z,4.93
2024-02-17T12:52:13.919Z,5.05
2024-02-17T12:54:44.720Z,5.10
2024-02-17T12:57:13.224Z,4.07
2024-02-17T12:59:42.440Z,4.03
2024-02-17T13:02:10.891Z,4.10
2024-02-17T13:04:39.755Z,3.35
2024-02-17T13:07:09.544Z,3.20
2024-02-17T13:09:37.926Z,3.20
2024-02-17T13:12:08.495Z,2.97
2024-02-17T13:14:36.805Z,2.83
2024-02-17T13:17:05.771Z,2.70
2024-02-17T13:19:34.242Z,2.60
2024-02-17T13:22:02.837Z,2.38
2024-02-17T13:24:32.678Z,2.65
2024-02-17T13:27:01.266Z,2.47
2024-02-17T13:29:29.628Z,2.60
2024-02-17T13:31:58.027Z,2.35
2024-02-17T13:34:27.079Z,2.40
2024-02-17T13:36:55.575Z,2.30
2024-02-17T13:39:24.000Z,2.90
2024-02-17T13:41:53.824Z,2.42
2024-02-17T13:44:22.162Z,2.63
2024-02-17T13:46:50.401Z,2.55
2024-02-17T13:49:18.845Z,1.98
2024-02-17T13:51:47.454Z,1.90
2024-02-17T13:54:18.108Z,2.20
2024-02-17T13:56:46.567Z,2.33
2024-02-17T13:59:16.219Z,2.20
2024-02-17T14:01:44.542Z,1.98
2024-02-17T14:04:12.964Z,2.20
2024-02-17T14:06:41.407Z,2.30
2024-02-17T14:09:09.981Z,2.40
2024-02-17T14:11:38.538Z,2.75
2024-02-17T14:14:08.220Z,3.83
2024-02-17T14:16:40.420Z,3.55
2024-02-17T14:19:09.042Z,3.72
2024-02-17T14:21:37.870Z,3.90
2024-02-17T14:24:08.901Z,3.38
2024-02-17T14:26:37.357Z,3.45
2024-02-17T14:29:05.823Z,2.85
2024-02-17T14:31:34.359Z,3.15
2024-02-17T14:34:04.684Z,3.30
2024-02-17T14:36:33.072Z,3.10
2024-02-17T14:39:01.408Z,3.72
2024-02-17T14:41:29.997Z,6.38
2024-02-17T14:43:58.387Z,7.18
2024-02-17T14:46:27.078Z,6.47
2024-02-17T14:48:55.573Z,6.10
2024-02-17T14:51:25.640Z,4.88
2024-02-17T14:53:54.043Z,4.90
2024-02-17T14:56:22.409Z,4.85
2024-02-17T14:58:50.883Z,4.65
2024-02-17T15:01:19.374Z,4.90
2024-02-17T15:03:48.604Z,4.85
2024-02-17T15:06:17.342Z,4.43
2024-02-17T15:08:47.140Z,5.28
2024-02-17T15:11:17.876Z,5.55
2024-02-17T15:13:49.328Z,5.70
2024-02-17T15:16:17.880Z,5.80
2024-02-17T15:18:46.627Z,6.18
2024-02-17T15:21:15.200Z,6.07
2024-02-17T15:23:46.396Z,6.40
2024-02-17T15:26:17.731Z,6.00
2024-02-17T15:28:46.057Z,6.45
2024-02-17T15:31:14.404Z,7.05
2024-02-17T15:33:42.895Z,7.38
2024-02-17T15:36:12.385Z,7.05
2024-02-17T15:38:40.710Z,7.57
2024-02-17T15:41:09.038Z,8.10
2024-02-17T15:43:38.819Z,8.73
2024-02-17T15:46:08.134Z,8.45
2024-02-17T15:48:38.251Z,8.13
2024-02-17T15:51:09.033Z,8.38
2024-02-17T15:53:37.494Z,9.15
2024-02-17T15:56:12.526Z,9.52
2024-02-17T15:58:42.567Z,11.30
2024-02-17T16:01:11.335Z,14.63
2024-02-17T16:03:40.195Z,18.27
2024-02-17T16:06:10.075Z,22.33
2024-02-17T16:08:39.676Z,33.63
2024-02-17T16:11:11.699Z,37.17
2024-02-17T16:13:46.259Z,28.27
2024-02-17T16:16:16.512Z,21.83
2024-02-17T16:18:47.451Z,18.27
2024-02-17T16:21:16.887Z,15.10
2024-02-17T16:23:45.524Z,14.43
2024-02-17T16:26:13.871Z,14.57
2024-02-17T16:28:43.709Z,13.27
2024-02-17T16:31:12.317Z,13.93
2024-02-17T16:33:40.914Z,14.52
2024-02-17T16:36:09.727Z,12.55
2024-02-17T16:38:38.085Z,10.82
2024-02-17T16:41:05.727Z,12.48
2024-02-17T16:43:34.052Z,47.70
2024-02-17T16:46:04.859Z,41.45
2024-02-17T16:48:33.503Z,26.35
2024-02-17T16:51:02.786Z,20.38
2024-02-17T16:53:31.219Z,20.63
2024-02-17T16:55:59.602Z,26.02
2024-02-17T16:58:27.878Z,26.20
2024-02-17T17:00:56.351Z,23.40
2024-02-17T17:03:26.212Z,20.33
2024-02-17T17:05:54.567Z,18.35
2024-02-17T17:08:22.953Z,17.55
2024-02-17T17:10:52.102Z,17.70
2024-02-17T17:13:21.374Z,17.00
2024-02-17T17:15:49.797Z,16.85
2024-02-17T17:18:18.399Z,16.80
2024-02-17T17:20:48.743Z,17.90
2024-02-17T17:23:17.306Z,18.55
2024-02-17T17:25:46.535Z,17.10
2024-02-17T17:28:15.114Z,14.43
2024-02-17T17:30:43.582Z,12.88
2024-02-17T17:33:12.070Z,13.15
2024-02-17T17:35:40.606Z,13.55
2024-02-17T17:38:10.337Z,13.52
2024-02-17T17:40:38.609Z,13.25
2024-02-17T17:43:07.819Z,13.55
2024-02-17T17:45:38.292Z,14.05
2024-02-17T17:48:07.607Z,15.55
2024-02-17T17:50:35.984Z,15.40
2024-02-17T17:53:06.380Z,16.17
2024-02-17T17:55:36.286Z,16.45
2024-02-17T17:58:04.971Z,18.60
2024-02-17T18:00:34.088Z,19.00
2024-02-17T18:03:02.541Z,19.42
2024-02-17T18:05:32.407Z,20.38
2024-02-17T18:08:01.011Z,19.50
2024-02-17T18:10:31.531Z,18.65
2024-02-17T18:13:02.753Z,17.20
2024-02-17T18:15:31.708Z,17.58
2024-02-17T18:18:00.638Z,18.10
2024-02-17T18:20:29.560Z,19.35
2024-02-17T18:22:57.872Z,20.58
2024-02-17T18:25:26.452Z,20.20
2024-02-17T18:27:54.887Z,20.23
2024-02-17T18:30:25.675Z,23.10
2024-02-17T18:32:54.461Z,21.63
2024-02-17T18:35:22.756Z,19.88
2024-02-17T18:37:51.131Z,18.13
2024-02-17T18:40:19.522Z,17.17
2024-02-17T18:42:47.920Z,18.05
2024-02-17T18:45:17.032Z,17.95
2024-02-17T18:47:46.920Z,16.70
2024-02-17T18:50:15.306Z,19.63
2024-02-17T18:52:43.669Z,21.65
2024-02-17T18:55:13.015Z,21.75
2024-02-17T18:57:42.759Z,21.88
2024-02-17T19:00:13.223Z,22.85
2024-02-17T19:02:41.570Z,21.05
2024-02-17T19:05:12.182Z,20.05
2024-02-17T19:07:41.843Z,19.90
2024-02-17T19:10:11.746Z,21.48
2024-02-17T19:12:40.068Z,21.85
2024-02-17T19:15:10.074Z,21.92
2024-02-17T19:17:38.467Z,22.70
2024-02-17T19:20:10.303Z,22.63
2024-02-17T19:22:40.299Z,21.70
2024-02-17T19:25:09.600Z,19.38
2024-02-17T19:27:38.158Z,18.67
2024-02-17T19:30:09.944Z,16.88
2024-02-17T19:32:38.844Z,16.00
2024-02-17T19:35:08.585Z,15.88
2024-02-17T19:37:36.882Z,15.38
2024-02-17T19:40:10.911Z,15.57
2024-02-17T19:42:39.793Z,16.25
2024-02-17T19:45:10.150Z,16.92
2024-02-17T19:47:38.642Z,17.23
2024-02-17T19:50:09.924Z,15.75
2024-02-17T19:52:38.973Z,15.73
2024-02-17T19:55:10.596Z,14.70
2024-02-17T19:57:42.739Z,14.70
2024-02-17T20:00:11.888Z,16.70
2024-02-17T20:02:40.320Z,17.27
2024-02-17T20:05:09.344Z,16.42
2024-02-17T20:07:37.992Z,15.70
2024-02-17T20:10:09.041Z,16.92
2024-02-17T20:12:37.652Z,15.05
2024-02-17T20:15:08.313Z,12.95
2024-02-17T20:17:44.873Z,13.63
2024-02-17T20:20:17.538Z,26.02
2024-02-17T20:22:46.577Z,39.80
2024-02-17T20:25:16.501Z,29.20
2024-02-17T20:27:44.927Z,21.35
2024-02-17T20:30:13.503Z,16.08
2024-02-17T20:32:41.996Z,15.38
2024-02-17T20:35:10.762Z,12.15
2024-02-17T20:37:39.197Z,11.85
2024-02-17T20:40:09.873Z,12.30
2024-02-17T20:42:41.474Z,11.52
2024-02-17T20:45:10.160Z,11.93
2024-02-17T20:47:39.530Z,12.35
2024-02-17T20:50:09.904Z,12.60
2024-02-17T20:52:38.541Z,13.02
2024-02-17T20:55:08.112Z,12.48
2024-02-17T20:57:36.617Z,14.07
2024-02-17T21:00:08.200Z,12.93
2024-02-17T21:02:39.170Z,11.48
2024-02-17T21:05:08.618Z,11.27
2024-02-17T21:07:37.938Z,11.23
2024-02-17T21:10:07.971Z,12.45
2024-02-17T21:12:36.526Z,12.68
2024-02-17T21:15:08.168Z,15.65
2024-02-17T21:17:36.617Z,17.80
2024-02-17T21:20:06.254Z,15.40
2024-02-17T21:22:35.044Z,15.50
2024-02-17T21:25:03.543Z,14.18
2024-02-17T21:27:32.060Z,13.93
2024-02-17T21:30:00.468Z,12.23
2024-02-17T21:32:30.321Z,10.57
2024-02-17T21:34:58.675Z,10.93
2024-02-17T21:37:27.063Z,11.02
2024-02-17T21:39:55.504Z,11.35
2024-02-17T21:42:24.180Z,11.23
2024-02-17T21:44:52.812Z,11.25
2024-02-17T21:47:21.077Z,10.32
2024-02-17T21:49:50.860Z,10.40
2024-02-17T21:53:14.048Z,9.88
2024-02-17T21:55:45.119Z,11.35
2024-02-17T21:58:14.858Z,10.77
2024-02-17T22:00:43.425Z,9.88
2024-02-17T22:03:11.797Z,10.75
2024-02-17T22:05:41.638Z,9.70
2024-02-17T22:08:09.965Z,10.07
2024-02-17T22:10:38.204Z,10.27
2024-02-17T22:13:06.573Z,9.82
2024-02-17T22:15:35.060Z,9.40
2024-02-17T22:18:03.539Z,10.45
2024-02-17T22:20:31.873Z,10.55
2024-02-17T22:23:01.588Z,10.07
2024-02-17T22:25:30.276Z,10.05
2024-02-17T22:27:58.721Z,10.03
2024-02-17T22:30:27.361Z,10.02
2024-02-17T22:32:59.400Z,9.75
2024-02-17T22:35:27.981Z,9.00
2024-02-17T22:37:56.999Z,9.27
2024-02-17T22:40:28.784Z,9.23
2024-02-17T22:42:57.995Z,9.23
2024-02-17T22:45:27.838Z,9.18
2024-02-17T22:47:56.488Z,8.82
2024-02-17T22:50:24.967Z,9.52
2024-02-17T22:52:53.670Z,9.32
2024-02-17T22:55:22.018Z,8.85
2024-02-17T22:57:51.983Z,9.10
2024-02-17T23:00:26.037Z,9.52
2024-02-17T23:02:54.624Z,7.80
2024-02-17T23:05:24.596Z,8.15
2024-02-17T23:07:54.802Z,7.63
2024-02-17T23:10:23.717Z,6.28
2024-02-17T23:12:53.512Z,5.82
2024-02-17T23:15:22.233Z,6.65
2024-02-17T23:17:50.708Z,6.07
2024-02-17T23:20:19.238Z,5.40
2024-02-17T23:22:47.683Z,5.33
2024-02-17T23:25:16.883Z,5.85
2024-02-17T23:27:45.317Z,6.38
2024-02-17T23:30:15.374Z,5.93
2024-02-17T23:32:43.728Z,6.00
2024-02-17T23:35:12.724Z,5.97
2024-02-17T23:37:42.071Z,6.50
2024-02-17T23:40:16.572Z,6.55
2024-02-17T23:42:44.950Z,6.20
2024-02-17T23:45:14.850Z,6.40
2024-02-17T23:47:43.281Z,6.57
2024-02-17T23:50:12.145Z,6.15
2024-02-17T23:52:40.603Z,6.15
2024-02-17T23:55:10.110Z,6.30
2024-02-17T23:57:39.658Z,5.83
